Time;durP1;ratioP1;P1;durP2;ratioP2;P2;SDS_P1;SDS_P2;PMS_P1;PMS_P2;Temp;Humidity;BMP_temperature;BMP_pressure;BME280_temperature;BME280_humidity;BME280_pressure;Samples;Min_cycle;Max_cycle;Signal;HPM_P1;HPM_P2
2023/07/11 00:00:22;;;;;;;;;;;;;;;16.06;43.13;95868.03;4997021;28;19937;-77
2023/07/11 00:02:47;;;;;;;;;;;;;;;15.98;41.83;95861.00;4982326;28;20016;-76
2023/07/11 00:05:13;;;;;;;;;;;;;;;15.76;41.83;95855.84;4980738;28;19922;-76
2023/07/11 00:07:38;;;;;;;;;;;;;;;15.72;43.48;95858.13;4980834;28;20371;-76
2023/07/11 00:10:04;;;;;;;;;;;;;;;15.76;43.12;95866.56;4979356;28;20406;-77
2023/07/11 00:12:29;;;;;;;;;;;;;;;15.78;44.01;95853.78;4997219;28;19922;-76
2023/07/11 00:14:55;;;;;;;;;;;;;;;15.82;42.54;95846.97;4982728;28;20008;-77
2023/07/11 00:17:21;;;;;;;;;;;;;;;15.88;43.80;95850.69;4980080;28;20122;-77
2023/07/11 00:19:54;;;;;;;;;;;;;;;15.95;43.07;95845.31;4981365;28;20382;-76
2023/07/11 00:22:19;;;;;;;;;;;;;;;15.99;44.08;95844.69;4994729;28;19918;-76
2023/07/11 00:24:45;;;;;;;;;;;;;;;15.98;42.98;95840.34;4979401;28;19929;-77
2023/07/11 00:27:10;;;;;;;;;;;;;;;15.96;43.69;95846.97;4996239;28;19959;-77
2023/07/11 00:29:35;;;;;;;;;;;;;;;15.94;43.65;95839.09;4979198;28;19925;-76
2023/07/11 00:32:01;;;;;;;;;;;;;;;15.84;41.87;95833.34;4994715;28;19978;-77
2023/07/11 00:34:26;;;;;;;;;;;;;;;15.75;42.10;95838.88;4981903;28;19968;-76
2023/07/11 00:36:51;;;;;;;;;;;;;;;15.72;41.48;95839.31;4980855;28;19972;-76
2023/07/11 00:39:19;;;;;;;;;;;;;;;15.63;41.39;95837.03;4980820;28;20097;-76
2023/07/11 00:41:44;;;;;;;;;;;;;;;15.55;41.75;95840.72;4981389;28;20375;-75
2023/07/11 00:44:11;;;;;;;;;;;;;;;15.54;41.73;95834.50;4995444;28;19926;-76
2023/07/11 00:46:37;;;;;;;;;;;;;;;15.54;44.17;95834.50;4996746;28;20352;-76
2023/07/11 00:49:02;;;;;;;;;;;;;;;15.63;44.95;95824.44;4979878;28;20021;-76
2023/07/11 00:51:32;;;;;;;;;;;;;;;15.78;44.45;95834.16;4995669;28;20386;-76
2023/07/11 00:53:57;;;;;;;;;;;;;;;15.79;42.11;95831.28;4995132;28;20331;-75
2023/07/11 00:56:24;;;;;;;;;;;;;;;15.78;45.11;95832.31;4995633;28;20151;-77
2023/07/11 00:58:49;;;;;;;;;;;;;;;15.82;43.47;95830.03;4979858;28;19918;-76
2023/07/11 01:01:14;;;;;;;;;;;;;;;15.97;42.06;95829.81;4980545;28;19921;-74
2023/07/11 01:03:39;;;;;;;;;;;;;;;16.07;43.71;95832.06;4981713;28;19922;-74
2023/07/11 01:06:09;;;;;;;;;;;;;;;16.15;42.10;95831.03;4978374;28;19969;-75
2023/07/11 01:08:34;;;;;;;;;;;;;;;16.15;44.02;95834.56;4978107;28;19964;-74
2023/07/11 01:10:59;;;;;;;;;;;;;;;16.16;43.58;95828.16;4979714;28;19918;-74
2023/07/11 01:13:25;;;;;;;;;;;;;;;16.16;41.86;95830.84;4978904;28;19918;-76
2023/07/11 01:15:50;;;;;;;;;;;;;;;16.13;42.85;95831.25;4978872;28;19930;-75
2023/07/11 01:18:15;;;;;;;;;;;;;;;16.09;41.83;95830.00;4979465;28;19968;-73
2023/07/11 01:20:41;;;;;;;;;;;;;;;16.06;43.67;95831.25;4979235;28;20388;-75
2023/07/11 01:23:06;;;;;;;;;;;;;;;15.98;42.83;95824.22;4979217;28;19957;-75
2023/07/11 01:25:32;;;;;;;;;;;;;;;15.98;43.28;95821.53;4979494;28;19936;-74
2023/07/11 01:27:57;;;;;;;;;;;;;;;15.98;42.49;95820.75;4993218;28;20024;-74
2023/07/11 01:30:24;;;;;;;;;;;;;;;15.89;43.92;95820.13;4978946;28;19976;-75
2023/07/11 01:32:50;;;;;;;;;;;;;;;15.81;42.50;95818.44;4994849;28;19925;-74
2023/07/11 01:35:15;;;;;;;;;;;;;;;15.80;43.87;95813.28;4978648;28;20037;-76
2023/07/11 01:37:40;;;;;;;;;;;;;;;15.77;44.22;95806.47;4979094;28;19926;-75
2023/07/11 01:40:06;;;;;;;;;;;;;;;15.76;43.87;95810.19;4995345;28;19961;-75
2023/07/11 01:42:31;;;;;;;;;;;;;;;15.76;44.53;95810.19;4995779;28;19917;-74
2023/07/11 01:44:56;;;;;;;;;;;;;;;15.77;44.74;95801.13;4998606;28;19929;-75
2023/07/11 01:47:22;;;;;;;;;;;;;;;15.69;44.46;95802.16;4997078;28;20556;-75
2023/07/11 01:49:47;;;;;;;;;;;;;;;15.72;44.01;95798.22;4984692;28;19918;-74
2023/07/11 01:52:16;;;;;;;;;;;;;;;15.74;44.18;95797.00;4982872;28;19947;-74
2023/07/11 01:54:41;;;;;;;;;;;;;;;15.76;44.11;95799.47;4998323;28;19980;-75
2023/07/11 01:57:10;;;;;;;;;;;;;;;15.80;44.02;95794.50;4982616;28;19918;-76
2023/07/11 01:59:35;;;;;;;;;;;;;;;15.83;43.85;95788.72;4983666;28;19929;-75
2023/07/11 02:02:01;;;;;;;;;;;;;;;15.85;44.16;95792.84;4999208;28;19952;-76
2023/07/11 02:04:26;;;;;;;;;;;;;;;15.89;44.37;95795.97;4998611;28;19925;-75
2023/07/11 02:06:51;;;;;;;;;;;;;;;15.87;44.03;95792.63;4981411;28;19928;-76
2023/07/11 02:09:17;;;;;;;;;;;;;;;15.84;44.40;95785.03;4981414;28;20386;-76
2023/07/11 02:11:42;;;;;;;;;;;;;;;15.78;43.62;95785.84;4981916;28;19990;-75
2023/07/11 02:14:08;;;;;;;;;;;;;;;15.72;44.43;95785.66;4982862;28;19972;-75
2023/07/11 02:16:33;;;;;;;;;;;;;;;15.78;44.64;95783.16;4982040;28;19929;-75
2023/07/11 02:18:58;;;;;;;;;;;;;;;15.84;44.61;95782.34;4983874;28;20444;-75
2023/07/11 02:21:24;;;;;;;;;;;;;;;15.91;44.16;95777.78;4997573;28;20178;-75
2023/07/11 02:23:49;;;;;;;;;;;;;;;15.93;43.63;95774.88;4982684;28;19929;-75
2023/07/11 02:26:15;;;;;;;;;;;;;;;15.92;44.12;95779.44;4983604;28;19926;-75
2023/07/11 02:28:40;;;;;;;;;;;;;;;15.90;44.16;95776.13;4983260;28;19954;-76
2023/07/11 02:31:05;;;;;;;;;;;;;;;15.85;44.01;95775.94;4982247;28;19925;-74
2023/07/11 02:33:31;;;;;;;;;;;;;;;15.87;44.52;95776.53;4981506;28;19934;-75
2023/07/11 02:35:56;;;;;;;;;;;;;;;15.87;43.64;95777.38;4980851;28;20008;-75
2023/07/11 02:38:21;;;;;;;;;;;;;;;15.87;44.40;95780.06;4983160;28;19937;-75
2023/07/11 02:40:46;;;;;;;;;;;;;;;15.83;44.30;95764.56;4983171;28;20441;-75
2023/07/11 02:43:12;;;;;;;;;;;;;;;15.91;44.16;95768.91;4983630;28;20159;-75
2023/07/11 02:45:37;;;;;;;;;;;;;;;15.92;44.14;95765.19;4981438;28;20020;-76
2023/07/11 02:48:02;;;;;;;;;;;;;;;15.89;43.64;95766.44;4997629;28;19953;-74
2023/07/11 02:50:27;;;;;;;;;;;;;;;15.86;44.24;95759.63;4997018;28;19917;-74
2023/07/11 02:52:53;;;;;;;;;;;;;;;15.81;44.39;95763.97;4979965;28;19933;-75
2023/07/11 02:55:18;;;;;;;;;;;;;;;15.82;44.05;95760.25;4980712;28;20411;-76
2023/07/11 02:57:43;;;;;;;;;;;;;;;15.82;44.29;95758.38;4981228;28;19957;-75
2023/07/11 03:00:09;;;;;;;;;;;;;;;15.85;44.54;95762.50;4982568;28;20375;-74
2023/07/11 03:02:34;;;;;;;;;;;;;;;15.84;44.28;95758.19;4983364;28;20199;-74
2023/07/11 03:04:59;;;;;;;;;;;;;;;15.83;43.97;95756.50;4996959;28;19980;-74
2023/07/11 03:07:24;;;;;;;;;;;;;;;15.83;44.58;95760.03;4980182;28;19924;-75
2023/07/11 03:09:50;;;;;;;;;;;;;;;15.87;44.69;95755.06;4982946;28;20161;-75
2023/07/11 03:12:15;;;;;;;;;;;;;;;15.88;44.30;95754.03;4982381;28;20359;-75
2023/07/11 03:14:40;;;;;;;;;;;;;;;15.87;44.11;95747.00;4981036;28;19929;-75
2023/07/11 03:17:05;;;;;;;;;;;;;;;15.82;43.87;95747.66;4982538;28;19925;-75
2023/07/11 03:19:31;;;;;;;;;;;;;;;15.81;44.36;95737.94;4978274;28;20060;-75
2023/07/11 03:21:56;;;;;;;;;;;;;;;15.81;44.14;95727.19;4996602;28;20371;-74
2023/07/11 03:24:21;;;;;;;;;;;;;;;15.84;43.99;95720.59;4980788;28;20113;-73
2023/07/11 03:26:46;;;;;;;;;;;;;;;15.81;43.38;95726.38;4997750;28;19914;-75
2023/07/11 03:29:13;;;;;;;;;;;;;;;15.77;44.08;95728.66;4995134;28;19925;-75
2023/07/11 03:31:39;;;;;;;;;;;;;;;15.74;44.38;95729.09;4981941;28;20242;-76
2023/07/11 03:34:04;;;;;;;;;;;;;;;15.73;44.65;95728.25;4981726;28;19929;-75
2023/07/11 03:36:29;;;;;;;;;;;;;;;15.70;44.20;95725.13;4994303;28;20453;-74
2023/07/11 03:38:54;;;;;;;;;;;;;;;15.63;45.09;95722.47;4980966;28;20019;-75
2023/07/11 03:41:20;;;;;;;;;;;;;;;15.72;44.52;95726.59;4980444;28;19922;-75
2023/07/11 03:43:45;;;;;;;;;;;;;;;15.81;44.60;95718.34;4980455;28;19957;-74
2023/07/11 03:46:10;;;;;;;;;;;;;;;15.86;44.21;95714.00;4982514;28;20013;-75
2023/07/11 03:48:35;;;;;;;;;;;;;;;15.95;44.46;95708.38;4981951;28;19965;-75
2023/07/11 03:51:01;;;;;;;;;;;;;;;16.03;44.48;95712.69;4996119;28;19930;-75
2023/07/11 03:53:26;;;;;;;;;;;;;;;16.08;44.37;95711.03;4981764;28;19921;-75
2023/07/11 03:55:51;;;;;;;;;;;;;;;16.12;43.94;95711.44;4980119;28;20302;-74
2023/07/11 03:58:16;;;;;;;;;;;;;;;16.13;43.74;95708.56;4980837;28;19957;-75
2023/07/11 04:00:42;;;;;;;;;;;;;;;16.18;43.78;95705.22;4979524;28;20006;-76
2023/07/11 04:03:07;;;;;;;;;;;;;;;16.20;43.73;95703.16;4980633;28;19964;-75
2023/07/11 04:05:32;;;;;;;;;;;;;;;16.07;43.88;95700.50;4994038;28;19925;-77
2023/07/11 04:07:57;;;;;;;;;;;;;;;16.18;44.19;95710.59;4979472;28;20278;-75
2023/07/11 04:10:23;;;;;;;;;;;;;;;16.13;43.99;95702.34;4979868;28;20023;-75
2023/07/11 04:12:49;;;;;;;;;;;;;;;16.25;43.86;95700.66;4981681;28;19922;-75
2023/07/11 04:15:14;;;;;;;;;;;;;;;16.31;43.62;95698.97;4981865;28;19933;-75
2023/07/11 04:17:39;;;;;;;;;;;;;;;16.38;43.80;95693.59;4980492;28;20155;-75
2023/07/11 04:20:05;;;;;;;;;;;;;;;16.41;43.37;95695.88;4977163;28;20522;-77
2023/07/11 04:22:30;;;;;;;;;;;;;;;16.51;43.20;95693.56;4996380;28;20397;-75
2023/07/11 04:24:56;;;;;;;;;;;;;;;16.63;43.33;95684.81;4979642;28;19936;-75
2023/07/11 04:27:21;;;;;;;;;;;;;;;16.74;43.06;95694.03;4982403;28;20426;-76
2023/07/11 04:29:46;;;;;;;;;;;;;;;16.83;42.82;95694.63;4982354;28;19957;-75
2023/07/11 04:32:11;;;;;;;;;;;;;;;16.90;42.74;95698.09;4980651;28;19928;-74
2023/07/11 04:34:37;;;;;;;;;;;;;;;16.94;42.75;95691.25;4980678;28;19929;-76
2023/07/11 04:37:02;;;;;;;;;;;;;;;17.00;42.25;95693.03;4981202;28;19926;-76
2023/07/11 04:39:27;;;;;;;;;;;;;;;17.10;41.95;95689.06;4981105;28;19922;-76
2023/07/11 04:41:52;;;;;;;;;;;;;;;17.15;42.05;95694.63;4982579;28;19914;-75
2023/07/11 04:44:18;;;;;;;;;;;;;;;17.24;41.96;95697.88;4982069;28;19925;-75
2023/07/11 04:46:43;;;;;;;;;;;;;;;17.32;41.67;95692.22;4982652;28;19921;-75
2023/07/11 04:49:08;;;;;;;;;;;;;;;17.43;41.77;95697.97;4979009;28;19969;-75
2023/07/11 04:51:33;;;;;;;;;;;;;;;17.54;42.00;95691.81;4981435;28;19921;-75
2023/07/11 04:53:59;;;;;;;;;;;;;;;17.65;41.32;95695.69;4982489;28;19926;-76
2023/07/11 04:56:24;;;;;;;;;;;;;;;17.75;40.69;95695.19;4981646;28;20532;-76
2023/07/11 04:58:49;;;;;;;;;;;;;;;17.89;40.60;95694.03;4981989;28;19925;-74
2023/07/11 05:01:15;;;;;;;;;;;;;;;18.02;40.40;95690.34;4981880;28;20354;-75
2023/07/11 05:03:40;;;;;;;;;;;;;;;18.12;40.38;95680.94;4978387;28;19926;-76
2023/07/11 05:06:06;;;;;;;;;;;;;;;18.11;41.57;95682.81;4996655;28;20016;-75
2023/07/11 05:08:31;;;;;;;;;;;;;;;18.22;40.61;95680.41;4996736;28;20440;-74
2023/07/11 05:11:01;;;;;;;;;;;;;;;18.36;40.26;95679.19;4979621;28;19948;-74
2023/07/11 05:13:27;;;;;;;;;;;;;;;18.50;39.61;95677.16;4981262;28;19965;-76
2023/07/11 05:15:57;;;;;;;;;;;;;;;18.60;40.12;95675.81;4996412;28;19953;-75
2023/07/11 05:18:22;;;;;;;;;;;;;;;18.77;39.67;95673.31;4996330;28;20008;-76
2023/07/11 05:20:52;;;;;;;;;;;;;;;18.85;39.73;95670.28;4995966;28;20037;-74
2023/07/11 05:23:17;;;;;;;;;;;;;;;18.99;38.76;95673.59;4994916;28;19960;-76
2023/07/11 05:25:42;;;;;;;;;;;;;;;19.13;38.27;95676.06;4980310;28;19957;-74
2023/07/11 05:28:07;;;;;;;;;;;;;;;19.35;37.97;95670.16;4979322;28;19929;-73
2023/07/11 05:30:36;;;;;;;;;;;;;;;19.55;38.18;95677.94;4981749;28;19956;-76
2023/07/11 05:33:02;;;;;;;;;;;;;;;19.68;37.86;95666.88;4996019;28;19926;-74
2023/07/11 05:35:27;;;;;;;;;;;;;;;19.81;37.22;95668.53;4979787;28;19937;-75
2023/07/11 05:37:52;;;;;;;;;;;;;;;19.91;37.22;95667.09;4981718;28;19985;-75
2023/07/11 05:40:17;;;;;;;;;;;;;;;20.13;36.72;95658.41;4996164;28;19926;-74
2023/07/11 05:42:43;;;;;;;;;;;;;;;20.23;36.36;95661.31;4980955;28;19933;-76
2023/07/11 05:45:08;;;;;;;;;;;;;;;20.40;36.15;95665.97;4981162;28;20586;-76
2023/07/11 05:47:33;;;;;;;;;;;;;;;20.58;36.09;95654.97;4996380;28;20370;-74
2023/07/11 05:49:58;;;;;;;;;;;;;;;20.69;35.84;95652.47;4980675;28;20579;-74
2023/07/11 05:52:24;;;;;;;;;;;;;;;20.86;35.45;95647.94;4994333;28;19980;-75
2023/07/11 05:54:49;;;;;;;;;;;;;;;21.02;34.89;95647.38;4981438;28;20000;-74
2023/07/11 05:57:14;;;;;;;;;;;;;;;21.04;34.79;95648.75;4996012;28;19924;-74
2023/07/11 05:59:40;;;;;;;;;;;;;;;21.12;34.77;95651.06;4979951;28;20364;-75
2023/07/11 06:02:05;;;;;;;;;;;;;;;20.62;35.00;95644.47;4980079;28;19925;-74
2023/07/11 06:04:31;;;;;;;;;;;;;;;21.06;34.57;95640.41;4994710;28;20387;-66
2023/07/11 06:06:56;;;;;;;;;;;;;;;21.23;34.65;95645.81;4979124;28;19921;-66
2023/07/11 06:09:21;;;;;;;;;;;;;;;21.48;34.20;95641.91;4978493;28;20058;-66
2023/07/11 06:11:47;;;;;;;;;;;;;;;21.66;34.17;95638.09;4980518;28;19944;-64
2023/07/11 06:14:12;;;;;;;;;;;;;;;21.46;34.42;95638.63;4980126;28;19926;-64
2023/07/11 06:16:37;;;;;;;;;;;;;;;21.54;34.13;95635.50;4980590;28;19964;-64
2023/07/11 06:19:04;;;;;;;;;;;;;;;21.34;34.05;95625.16;4980866;28;19918;-66
2023/07/11 06:21:29;;;;;;;;;;;;;;;21.77;34.06;95636.34;4979074;28;19957;-66
2023/07/11 06:23:54;;;;;;;;;;;;;;;21.88;33.47;95640.84;4979563;28;20015;-66
2023/07/11 06:26:20;;;;;;;;;;;;;;;21.97;33.26;95626.88;4977834;28;19937;-65
2023/07/11 06:28:45;;;;;;;;;;;;;;;21.69;33.58;95625.94;4976874;28;19952;-66
2023/07/11 06:31:10;;;;;;;;;;;;;;;21.97;32.72;95624.19;4983815;28;19926;-66
2023/07/11 06:33:36;;;;;;;;;;;;;;;21.66;33.16;95629.97;4982722;28;19926;-65
2023/07/11 06:36:02;;;;;;;;;;;;;;;21.35;33.35;95621.41;4983181;28;19953;-66
2023/07/11 06:38:27;;;;;;;;;;;;;;;20.73;33.89;95634.69;4978727;28;19968;-65
2023/07/11 06:40:53;;;;;;;;;;;;;;;21.33;33.85;95629.78;4979510;28;20374;-65
2023/07/11 06:43:19;;;;;;;;;;;;;;;21.33;33.88;95634.34;4981460;28;20031;-66
2023/07/11 06:45:47;;;;;;;;;;;;;;;22.26;31.99;95632.94;4977833;28;19972;-65
2023/07/11 06:48:13;;;;;;;;;;;;;;;21.81;32.98;95625.81;4981672;28;20016;-65
2023/07/11 06:50:39;;;;;;;;;;;;;;;21.61;33.21;95627.19;4982049;28;19969;-64
2023/07/11 06:53:04;;;;;;;;;;;;;;;21.58;33.00;95623.09;4982969;28;20182;-66
2023/07/11 06:55:30;;;;;;;;;;;;;;;21.64;32.41;95622.09;4980406;28;19933;-66
2023/07/11 06:57:55;;;;;;;;;;;;;;;21.11;34.46;95614.25;4982056;28;19982;-66
2023/07/11 07:00:20;;;;;;;;;;;;;;;22.04;32.77;95615.84;4983096;28;19921;-64
2023/07/11 07:02:46;;;;;;;;;;;;;;;19.52;37.37;95625.25;4981153;28;19976;-65
2023/07/11 07:05:11;;;;;;;;;;;;;;;21.63;33.58;95619.63;4980956;28;20247;-65
2023/07/11 07:07:36;;;;;;;;;;;;;;;22.05;32.25;95612.88;4980291;28;19926;-66
2023/07/11 07:10:02;;;;;;;;;;;;;;;22.36;32.70;95615.13;4980025;28;19925;-66
2023/07/11 07:12:27;;;;;;;;;;;;;;;22.48;31.61;95615.81;4984146;28;19922;-65
2023/07/11 07:14:52;;;;;;;;;;;;;;;22.61;31.77;95605.66;4982082;28;19922;-65
2023/07/11 07:17:17;;;;;;;;;;;;;;;22.76;31.84;95613.13;4982396;28;20298;-65
2023/07/11 07:19:43;;;;;;;;;;;;;;;22.82;32.09;95620.25;4981639;28;19937;-66
2023/07/11 07:22:08;;;;;;;;;;;;;;;23.08;30.99;95615.03;4980138;28;20624;-65
2023/07/11 07:24:34;;;;;;;;;;;;;;;23.13;31.18;95615.09;4979458;28;20013;-66
2023/07/11 07:26:59;;;;;;;;;;;;;;;23.40;30.14;95613.41;4983940;28;20548;-66
2023/07/11 07:29:24;;;;;;;;;;;;;;;23.01;30.83;95611.72;4979135;28;20311;-66
2023/07/11 07:31:49;;;;;;;;;;;;;;;22.43;31.55;95604.91;4981019;28;19996;-65
2023/07/11 07:34:15;;;;;;;;;;;;;;;22.38;32.60;95608.41;4983942;28;20646;-66
2023/07/11 07:36:40;;;;;;;;;;;;;;;22.58;32.66;95604.28;4982056;28;20655;-66
2023/07/11 07:39:05;;;;;;;;;;;;;;;22.40;32.05;95598.09;4981148;28;19925;-65
2023/07/11 07:41:31;;;;;;;;;;;;;;;23.29;30.46;95601.66;4982644;28;19983;-66
2023/07/11 07:43:56;;;;;;;;;;;;;;;23.63;29.38;95595.91;4981680;28;19932;-66
2023/07/11 07:46:21;;;;;;;;;;;;;;;22.61;30.91;95597.53;4982196;28;19972;-65
2023/07/11 07:48:46;;;;;;;;;;;;;;;23.32;30.07;95598.44;4981265;28;19925;-64
2023/07/11 07:51:13;;;;;;;;;;;;;;;23.02;29.97;95597.06;4982034;28;19961;-66
2023/07/11 07:53:38;;;;;;;;;;;;;;;23.53;29.11;95596.63;4981488;28;19925;-64
2023/07/11 07:56:07;;;;;;;;;;;;;;;22.03;31.24;95585.25;4978620;28;20301;-64
2023/07/11 07:58:33;;;;;;;;;;;;;;;23.15;30.61;95587.72;4982952;28;19921;-64
2023/07/11 08:00:58;;;;;;;;;;;;;;;23.33;30.45;95581.03;4980854;28;20012;-65
2023/07/11 08:03:23;;;;;;;;;;;;;;;22.35;31.68;95583.66;4981851;28;19932;-65
2023/07/11 08:05:48;;;;;;;;;;;;;;;22.05;31.51;95584.97;4980660;28;19925;-66
2023/07/11 08:08:14;;;;;;;;;;;;;;;22.90;30.46;95580.97;4980904;28;19925;-66
2023/07/11 08:10:39;;;;;;;;;;;;;;;23.05;30.13;95585.72;4982422;28;19988;-65
2023/07/11 08:13:04;;;;;;;;;;;;;;;23.43;29.23;95585.72;4979654;28;20408;-66
2023/07/11 08:15:30;;;;;;;;;;;;;;;23.93;29.69;95572.69;4980079;28;19980;-66
2023/07/11 08:17:55;;;;;;;;;;;;;;;24.57;28.44;95571.78;4981194;28;19924;-66
2023/07/11 08:20:20;;;;;;;;;;;;;;;23.62;30.02;95577.16;4981580;28;19953;-65
2023/07/11 08:22:45;;;;;;;;;;;;;;;24.51;28.87;95570.97;4980768;28;20302;-66
2023/07/11 08:25:11;;;;;;;;;;;;;;;24.27;28.54;95586.94;4982048;28;20365;-66
2023/07/11 08:27:37;;;;;;;;;;;;;;;23.78;29.68;95559.84;4980908;28;20093;-66
2023/07/11 08:30:02;;;;;;;;;;;;;;;24.76;28.39;95566.66;4981685;28;19960;-65
2023/07/11 08:32:28;;;;;;;;;;;;;;;23.80;28.83;95562.31;4979362;28;20024;-66
2023/07/11 08:34:53;;;;;;;;;;;;;;;24.56;28.23;95556.56;4980097;28;20526;-67
2023/07/11 08:37:19;;;;;;;;;;;;;;;24.65;28.60;95552.22;4980573;28;19979;-65
2023/07/11 08:39:44;;;;;;;;;;;;;;;24.60;29.00;95563.09;4982168;28;19918;-66
2023/07/11 08:42:14;;;;;;;;;;;;;;;24.29;29.13;95563.00;4980583;28;20012;-65
2023/07/11 08:44:50;;;;;;;;;;;;;;;23.52;30.84;95556.97;4995693;28;19946;-66
2023/07/11 08:47:21;;;;;;;;;;;;;;;22.74;31.52;95548.25;4981642;28;19918;-67
2023/07/11 08:49:48;;;;;;;;;;;;;;;24.17;30.61;95550.47;4976878;28;19926;-66
2023/07/11 08:52:13;;;;;;;;;;;;;;;25.05;28.73;95541.63;4978277;28;19926;-66
2023/07/11 08:54:51;;;;;;;;;;;;;;;25.02;28.10;95549.53;4993333;28;19934;-65
2023/07/11 08:57:16;;;;;;;;;;;;;;;24.29;28.85;95546.69;4979189;28;20043;-66
2023/07/11 08:59:43;;;;;;;;;;;;;;;23.30;31.07;95548.97;4978320;28;19926;-67
2023/07/11 09:02:08;;;;;;;;;;;;;;;24.13;29.77;95533.06;4995832;28;19948;-66
2023/07/11 09:04:34;;;;;;;;;;;;;;;24.07;29.91;95534.13;4979786;28;19925;-67
2023/07/11 09:07:06;;;;;;;;;;;;;;;24.52;29.88;95539.97;4981293;28;19918;-66
2023/07/11 09:09:32;;;;;;;;;;;;;;;23.78;30.44;95532.69;4995901;28;19918;-66
2023/07/11 09:12:04;;;;;;;;;;;;;;;25.31;28.09;95536.13;4979968;28;20000;-66
2023/07/11 09:14:44;;;;;;;;;;;;;;;25.54;27.63;95538.56;4979706;28;19937;-66
2023/07/11 09:17:21;;;;;;;;;;;;;;;25.04;28.02;95537.28;4994329;28;19922;-67
2023/07/11 09:20:05;;;;;;;;;;;;;;;25.26;28.18;95540.78;4995997;28;19921;-67
2023/07/11 09:22:33;;;;;;;;;;;;;;;25.24;27.26;95526.59;4978493;28;19922;-66
2023/07/11 09:24:59;;;;;;;;;;;;;;;25.62;27.63;95529.81;4979639;28;19936;-66
2023/07/11 09:27:24;;;;;;;;;;;;;;;24.74;28.40;95522.53;4978861;28;19921;-67
2023/07/11 09:29:49;;;;;;;;;;;;;;;25.03;29.05;95532.09;4981518;28;19964;-67
2023/07/11 09:32:15;;;;;;;;;;;;;;;24.51;29.16;95516.53;4979316;28;19949;-67
2023/07/11 09:34:44;;;;;;;;;;;;;;;24.57;30.32;95518.19;4981344;28;19960;-66
2023/07/11 09:37:30;;;;;;;;;;;;;;;25.33;29.06;95519.53;4980334;28;19925;-66
2023/07/11 09:39:58;;;;;;;;;;;;;;;25.79;28.59;95512.28;4978973;28;19937;-67
2023/07/11 09:42:43;;;;;;;;;;;;;;;25.31;28.63;95510.78;4980353;28;19964;-67
2023/07/11 09:45:12;;;;;;;;;;;;;;;25.40;29.07;95506.44;4979879;28;20417;-66
2023/07/11 09:47:37;;;;;;;;;;;;;;;26.66;27.35;95499.28;4977519;28;19928;-66
2023/07/11 09:50:09;;;;;;;;;;;;;;;26.25;28.94;95492.19;4978037;28;20312;-67
2023/07/11 09:52:34;;;;;;;;;;;;;;;25.05;29.69;95505.41;4976040;28;19921;-65
2023/07/11 09:54:59;;;;;;;;;;;;;;;25.12;30.56;95488.78;4978426;28;19937;-67
2023/07/11 09:57:25;;;;;;;;;;;;;;;25.71;29.72;95492.72;4995145;28;19922;-67
2023/07/11 09:59:54;;;;;;;;;;;;;;;25.89;29.00;95493.16;4978282;28;20599;-67
2023/07/11 10:02:19;;;;;;;;;;;;;;;23.71;31.76;95494.03;4979500;28;20057;-66
2023/07/11 10:04:45;;;;;;;;;;;;;;;24.29;32.33;95495.00;4996794;28;20020;-66
2023/07/11 10:07:12;;;;;;;;;;;;;;;25.19;31.33;95487.41;4981563;28;19981;-67
2023/07/11 10:09:42;;;;;;;;;;;;;;;23.98;32.23;95489.50;4981174;28;19925;-67
2023/07/11 10:12:15;;;;;;;;;;;;;;;25.42;31.36;95489.81;4983372;28;19932;-67
2023/07/11 10:14:40;;;;;;;;;;;;;;;23.90;32.34;95480.78;4983532;28;20344;-66
2023/07/11 10:17:25;;;;;;;;;;;;;;;24.17;33.37;95485.19;4982519;28;19944;-67
2023/07/11 10:19:54;;;;;;;;;;;;;;;24.40;31.88;95501.34;4981746;28;19952;-68
2023/07/11 10:22:20;;;;;;;;;;;;;;;25.53;30.56;95485.97;4980873;28;19918;-67
2023/07/11 10:24:45;;;;;;;;;;;;;;;26.45;29.21;95482.22;4982880;28;19930;-67
2023/07/11 10:27:12;;;;;;;;;;;;;;;26.81;28.83;95486.59;4983961;28;20011;-67
2023/07/11 10:29:40;;;;;;;;;;;;;;;27.10;28.17;95491.28;4998213;28;20404;-66
2023/07/11 10:32:06;;;;;;;;;;;;;;;27.47;27.14;95483.50;4997702;28;19929;-66
2023/07/11 10:34:47;;;;;;;;;;;;;;;26.53;28.71;95476.16;4998740;28;19932;-67
2023/07/11 10:37:18;;;;;;;;;;;;;;;27.30;27.70;95473.03;4980855;28;19930;-67
2023/07/11 10:39:45;;;;;;;;;;;;;;;28.27;26.42;95456.50;4982749;28;19932;-69
2023/07/11 10:42:10;;;;;;;;;;;;;;;28.49;26.13;95457.81;4982173;28;19928;-69
2023/07/11 10:44:44;;;;;;;;;;;;;;;29.20;24.91;95458.00;4981987;28;19934;-68
2023/07/11 10:47:09;;;;;;;;;;;;;;;28.70;25.09;95475.81;4997576;28;19924;-67
2023/07/11 10:49:54;;;;;;;;;;;;;;;27.56;26.46;95456.34;4983007;28;19922;-69
2023/07/11 10:52:23;;;;;;;;;;;;;;;27.52;26.26;95451.44;4982388;28;19922;-68
2023/07/11 10:54:50;;;;;;;;;;;;;;;27.05;27.89;95466.72;4983569;28;20006;-66
2023/07/11 10:57:28;;;;;;;;;;;;;;;28.25;25.92;95442.28;4996705;28;20033;-69
2023/07/11 10:59:53;;;;;;;;;;;;;;;28.19;25.94;95434.47;4978852;28;19930;-66
2023/07/11 11:02:20;;;;;;;;;;;;;;;29.11;25.27;95441.41;4995131;28;19961;-67
2023/07/11 11:05:24;;;;;;;;;;;;;;;29.27;24.46;95439.22;4979050;28;19933;-68
2023/07/11 11:07:52;;;;;;;;;;;;;;;28.44;25.77;95441.44;4998363;28;20460;-67
2023/07/11 11:10:26;;;;;;;;;;;;;;;28.13;26.02;95426.31;4979779;28;20529;-68
2023/07/11 11:12:54;;;;;;;;;;;;;;;27.22;27.55;95426.13;4978607;28;19937;-67
2023/07/11 11:15:28;;;;;;;;;;;;;;;28.42;25.93;95417.09;4982247;28;19926;-68
2023/07/11 11:17:53;;;;;;;;;;;;;;;28.52;25.32;95413.38;4998149;28;20024;-67
2023/07/11 11:20:21;;;;;;;;;;;;;;;28.53;25.57;95423.25;4980038;28;20056;-68
2023/07/11 11:22:51;;;;;;;;;;;;;;;28.35;24.69;95413.94;4997870;28;20623;-67
2023/07/11 11:25:25;;;;;;;;;;;;;;;27.30;27.17;95407.44;4995450;28;19965;-69
2023/07/11 11:27:58;;;;;;;;;;;;;;;27.71;25.25;95403.41;4996129;28;20649;-69
2023/07/11 11:30:31;;;;;;;;;;;;;;;28.35;24.80;95404.94;4980330;28;19987;-68
2023/07/11 11:32:59;;;;;;;;;;;;;;;28.92;23.42;95404.78;4981040;28;19922;-69
2023/07/11 11:35:34;;;;;;;;;;;;;;;29.55;23.54;95400.81;4976474;28;20594;-68
2023/07/11 11:38:05;;;;;;;;;;;;;;;29.63;23.28;95394.59;4982175;28;19961;-67
2023/07/11 11:40:31;;;;;;;;;;;;;;;29.52;22.85;95401.44;4980206;28;20476;-70
2023/07/11 11:43:05;;;;;;;;;;;;;;;30.08;23.36;95388.41;4981133;28;19918;-68
2023/07/11 11:45:30;;;;;;;;;;;;;;;30.81;21.16;95383.91;4982609;28;19921;-68
2023/07/11 11:47:55;;;;;;;;;;;;;;;31.22;21.27;95384.72;4981814;28;20394;-68
2023/07/11 11:50:21;;;;;;;;;;;;;;;30.51;21.85;95389.03;4978854;28;19933;-68
2023/07/11 11:52:53;;;;;;;;;;;;;;;28.94;23.25;95382.56;4980860;28;20591;-69
2023/07/11 11:55:26;;;;;;;;;;;;;;;30.07;21.58;95385.97;4980690;28;19937;-68
2023/07/11 11:57:51;;;;;;;;;;;;;;;30.28;21.59;95389.06;4980894;28;20522;-67
2023/07/11 12:00:35;;;;;;;;;;;;;;;30.80;20.52;95379.53;4981207;28;19929;-69
2023/07/11 12:03:00;;;;;;;;;;;;;;;29.38;22.66;95374.03;4979896;28;20013;-69
2023/07/11 12:05:26;;;;;;;;;;;;;;;29.02;22.57;95368.16;4980771;28;20391;-67
2023/07/11 12:08:13;;;;;;;;;;;;;;;29.40;23.31;95360.84;4982097;28;19975;-67
2023/07/11 12:10:39;;;;;;;;;;;;;;;29.86;22.13;95356.28;4976998;28;20363;-67
2023/07/11 12:13:06;;;;;;;;;;;;;;;29.90;22.31;95343.56;4998071;28;20001;-68
2023/07/11 12:15:33;;;;;;;;;;;;;;;29.68;21.82;95345.16;4978983;28;19926;-68
2023/07/11 12:18:13;;;;;;;;;;;;;;;30.20;21.93;95345.91;4994844;28;19980;-68
2023/07/11 12:20:38;;;;;;;;;;;;;;;30.75;21.18;95349.44;4980686;28;20421;-67
2023/07/11 12:23:04;;;;;;;;;;;;;;;28.82;23.67;95343.91;4982257;28;19922;-67
2023/07/11 12:25:29;;;;;;;;;;;;;;;30.11;21.02;95342.25;4981365;28;19926;-66
2023/07/11 12:27:56;;;;;;;;;;;;;;;30.08;21.94;95336.25;4979924;28;19930;-70
2023/07/11 12:30:42;;;;;;;;;;;;;;;30.24;21.72;95335.91;4981254;28;19918;-69
2023/07/11 12:33:20;;;;;;;;;;;;;;;27.57;25.06;95335.78;4981530;28;19929;-68
2023/07/11 12:35:45;;;;;;;;;;;;;;;28.07;24.34;95328.22;4980536;28;20321;-65
2023/07/11 12:38:22;;;;;;;;;;;;;;;28.59;24.18;95328.16;4995558;28;19921;-66
2023/07/11 12:40:49;;;;;;;;;;;;;;;29.78;22.67;95330.38;4979518;28;19926;-72
2023/07/11 12:43:22;;;;;;;;;;;;;;;30.90;21.48;95323.50;4997973;28;20046;-72
2023/07/11 12:45:57;;;;;;;;;;;;;;;31.55;21.13;95320.25;4977254;28;19926;-70